Tiempo atmosférico en la estación meteorológica de Grazalema, Cádiz (900 m.)



Fecha
DESCASC
Temp. máxima en grados centígrados (hora)
DESCASC
Temp. mínima en grados centígrados (hora)
DESCASC
Temp. media en grados centígrados
DESCASC
Racha de viento máxima en m/sg (hora)
DESCASC
Velocidad máxima media en intervalos de 10 minutos(hora)
DESCASC
Precipitaciones diarias en mm
DESCASC
Precipitaciones de 00:00 a 06:00 en mm
DESCASC
Precipitaciones de 06:00 a 12:00 en mm
DESCASC
Precipitaciones de 12:00 a 18:00 en mm
DESCASC
Precipitaciones de 18:00 a 24:00 en mm
DESCASC
08-12-2019 15 (14:20) 3.7 (06:20) 9.4 6.11 (23:20) 2.22 (22:50) 0 0 0 0 0
07-12-2019 15.1 (13:10) 5 (22:30) 10.1 5.56 (00:50) 2.22 (00:50) 0 0 0 0 0
06-12-2019 13.9 (13:40) 7.5 (00:00) 10.7 8.61 (01:10) 4.17 (01:20) 0 0 0 0 0
05-12-2019 13.3 (13:40) 1.9 (00:00) 7.6 6.11 (21:50) 3.33 (22:00) 0 0 0 0 0
04-12-2019 11.3 (14:00) 2.4 (00:00) 6.9 5.28 (14:50) 2.5 (07:50) 0 0 0 0 0
03-12-2019 12.5 (13:20) 5.5 (00:00) 9 5 (02:00) 2.22 (11:30) 2 1.9 0.1 0 0
02-12-2019 8.7 (14:40) 5.1 (00:00) 6.9 7.22 (15:30) 4.17 (15:30) 3.2 1.6 1 0.1 0.5
01-12-2019 11.6 (12:40) 7.3 (00:00) 9.5 8.61 (04:10) 2.78 (04:30) 26.8 9.1 0.1 12.1 5.5
30-11-2019 18 (12:00) 7.7 (00:00) 12.8 5.83 (22:40) 2.5 (05:30) 0 0 0 0 0
29-11-2019 16.3 (14:00) 5.3 (00:00) 10.8 3.89 (22:40) 2.5 (22:00) 0 0 0 0 0
28-11-2019 15.4 (14:40) 5.9 (00:00) 10.6 4.72 (00:10) 2.22 (23:40) 0 0 0 0 0
27-11-2019 14.2 (13:20) 9.6 (00:00) 11.9 8.06 (01:10) 2.5 (00:30) 20.5 20.4 0.1 0 0
26-11-2019 14.1 (14:20) 10.8 (00:00) 12.5 9.17 (19:20) 3.61 (19:20) 2.6 0.2 0.3 0.9 1.2
25-11-2019 13 (21:40) 6.8 (00:00) 9.9 8.61 (02:50) 2.78 (01:50) 15.2 0 1.4 7.3 6.5
24-11-2019 11.1 (11:50) 4.2 (00:00) 7.7 7.5 (21:20) 2.5 (00:10) 0 0 0 0 0
23-11-2019 9.8 (01:00) 6.9 (00:00) 8.4 13.89 (07:00) 4.72 (04:30) 12.5 4.8 7.7 0 0
22-11-2019 13.6 (19:10) 9.3 (00:00) 11.5 14.17 (15:00) 4.17 (20:30) 131.9 16.4 29 32.7 53.8
21-11-2019 10.8 (13:20) 7.6 (00:00) 9.2 8.89 (17:30) 2.78 (16:20) 34 12.5 2.9 12.7 5.9
20-11-2019 8.8 (13:20) 3.3 (00:00) 6.1 8.33 (13:20) 2.78 (07:30) 12.6 0 7.1 2.8 2.7
19-11-2019 10.8 (15:30) 1.7 (00:00) 6.3 4.17 (10:50) 2.22 (01:00) 0 0 0 0 0
18-11-2019 10.9 (13:50) 3.2 (00:00) 7 13.89 (01:10) 4.72 (06:30) 17.5 17.5 0 0 0
17-11-2019 10.3 (20:10) 4.2 (00:00) 7.3 12.22 (21:10) 4.17 (11:20) 33.4 0 1 18.1 14.3
16-11-2019 9.6 (14:20) 0.6 (00:00) 5.1 5.83 (18:50) 2.5 (00:30) 0 0 0 0 0
15-11-2019 7 (13:50) 2.9 (00:00) 5 10.83 (02:50) 3.33 (07:30) 0 0 0 0 0
14-11-2019 11 (00:00) 5.5 (00:00) 8.3 13.06 (12:30) 4.44 (12:30) 25.8 0 4.1 21.7 0
13-11-2019 11.9 (16:20) 7.4 (00:00) 9.6 10.83 (07:10) 3.33 (16:50) 16 2.5 6.4 7 0.1
12-11-2019 13.4 (14:20) 7.3 (00:00) 10.3 8.89 (16:30) 3.89 (16:30) 0 0 0 0 0
11-11-2019 12.2 (22:10) 7.1 (04:20) 9.6 9.44 (00:40) 3.06 (14:10) 2.8 1.2 0.4 0.3 0.9

Gráficas

Temp. máximas Temp. mínimas Temp. medias Precipitaciones Rachas de viento máximas Velocidades máximas media en intervalos de 10 minutos

Datos horarios

Fecha y hora oficial Temperatura (ºC) Velocidad del viento (km/h) Dirección del viento Racha (km/h) Dirección de racha Precipitación (mm) Presión (hPa) Tendencia (hPa) Humedad (%)
2019-12-10 23:00:00 5.5 8 Oeste 13 Oeste 0 921.5 -0.3 51
2019-12-10 22:00:00 5.5 7 Oeste 10 Oeste 0 921.5 0 51
2019-12-10 21:00:00 6.1 5 Oeste 11 Oeste 0 921.8 0.7 47
2019-12-10 20:00:00 7 8 Oeste 11 Oeste 0 921.8 0.7 46
2019-12-10 19:00:00 7.5 5 Oeste 10 Oeste 0 921.5 0.6 50
2019-12-10 18:00:00 7.9 6 Oeste 9 Oeste 0 921.1 0 59
2019-12-10 17:00:00 10.7 0 Calma 4 Oeste 0 921.1 -0.9 58
2019-12-10 16:00:00 12.4 0 Calma 5 Este 0 920.9 -1.6 47
2019-12-10 15:00:00 14.8 3 Sudeste 5 Sudeste 0 921.1 -2 34
2019-12-10 14:00:00 16.2 3 Sudoeste 8 Este 0 922 -1.1 23
2019-12-10 13:00:00 17.3 4 Este 7 Este 0 922.5 -0.5 17
2019-12-10 12:00:00 14.9 0 Calma 6 Sudoeste 0 923.1 0.7 28
2019-12-10 11:00:00 10.6 3 Oeste 8 Oeste 0 923.1 0.5 42
2019-12-10 10:00:00 8.1 4 Oeste 9 Oeste 0 923 0.4 47
2019-12-10 09:00:00 5.5 6 Oeste 13 Oeste 0 922.4 -0.2 52
2019-12-10 08:00:00 4.3 8 Oeste 13 Oeste 0 922.6 0 57
2019-12-10 07:00:00 4.5 9 Oeste 13 Oeste 0 922.6 -0.5 57
2019-12-10 06:00:00 4.5 8 Oeste 13 Noroeste 0 922.6 -0.4 60
2019-12-10 05:00:00 4.4 8 Oeste 12 Oeste 0 922.6 -0.6 61
2019-12-10 04:00:00 5.2 8 Oeste 15 Oeste 0 923.1 -0.6 59
2019-12-10 03:00:00 5.1 8 Oeste 12 Oeste 0 923 -0.7 62
2019-12-10 02:00:00 7.2 4 Oeste 14 Oeste 0 923.2 -0.5 52
2019-12-10 01:00:00 6.5 9 Oeste 14 Noroeste 0 923.7 -0.3 61
2019-12-10 00:00:00 7 8 Oeste 15 Oeste 0 923.7 -0.1 60
2019-12-09 23:00:00 7.5 7 Oeste 13 Oeste 0 923.7 0.2 62
2019-12-09 22:00:00 6.6 6 Oeste 14 Noroeste 0 924 0.5 72
2019-12-09 21:00:00 6.6 8 Oeste 14 Oeste 0 923.8 0.8 84
2019-12-09 20:00:00 7.3 5 Oeste 11 Oeste 0 923.5 0.8 87
2019-12-09 19:00:00 10.1 2 Noroeste 8 Este 0 923.5 0.5 88
2019-12-09 18:00:00 10.7 0 Calma -- -- 0 923 0 88
2019-12-09 17:00:00 10.6 0 Calma 4 Sudoeste 0 922.7 -0.9 88
2019-12-09 16:00:00 11.9 0 Calma 7 Este 0 923 -1.1 84
2019-12-09 15:00:00 12.8 0 Calma 9 Este 0 923 -2 80
2019-12-09 14:00:00 12.9 3 Nordeste 9 Nordeste 0 923.6 -1 82
2019-12-09 13:00:00 11.7 2 Sudeste 12 Este 0 924.1 0 87
2019-12-09 12:00:00 10.1 6 Este 13 Este 0 925 1.4 94
2019-12-09 11:00:00 10.2 5 Este 12 Este 0 924.6 1.5 95
2019-12-09 10:00:00 9.6 3 Este 11 Este 0 924.1 1.3 95
2019-12-09 09:00:00 9.5 2 Este 10 Este 0 923.6 1.1 95
2019-12-09 08:00:00 9.6 0 Calma 7 Este 0 923.1 0.7 94
2019-12-09 07:00:00 9.8 0 Calma 4 Este 0 922.8 0.4 92
2019-12-09 06:00:00 9.4 0 Calma 4 Noroeste 0 922.5 0.2 88
2019-12-09 05:00:00 9.4 0 Calma 5 Nordeste 0 922.4 0.1 87
2019-12-09 04:00:00 9.4 2 Oeste 19 Sudoeste 0 922.4 -0.4 87
2019-12-09 03:00:00 9.8 3 Nordeste 23 Noroeste 0 922.3 -0.5 82
2019-12-09 02:00:00 10 0 Calma 11 Noroeste 0 922.3 -0.5 82
2019-12-09 01:00:00 7.9 5 Oeste 9 Oeste 0 922.8 0.7 84
2019-12-09 00:00:00 8.5 4 Sudoeste 22 Noroeste 0 922.8 0.5 81
2019-12-08 23:00:00 10.4 7 Oeste 18 Noroeste 0 922.8 0.4 67
2019-12-08 22:00:00 10 3 Sur 13 Oeste 0 922.1 0.4 68
2019-12-08 21:00:00 10.4 4 Sudoeste 16 Noroeste 0 922.3 1.1 58
2019-12-08 20:00:00 8.6 5 Oeste 12 Noroeste 0 922.4 1.8 57
2019-12-08 19:00:00 9.4 5 Noroeste 15 Oeste 0 921.7 0.9 77
2019-12-08 18:00:00 10.5 7 Oeste 15 Sudoeste 0 921.2 0.5 73
2019-12-08 17:00:00 11.7 4 Oeste 12 Sudoeste 0 920.6 -0.4 69
2019-12-08 16:00:00 11.8 5 Sudoeste 14 Sudoeste 0 920.8 -0.9 63
2019-12-08 15:00:00 14.1 4 Oeste 11 Sudoeste 0 920.7 -1.4 59
2019-12-08 14:00:00 14.6 3 Oeste 13 Sudoeste 0 921 -1 57
2019-12-08 13:00:00 14.1 3 Oeste 12 Oeste 0 921.7 0.2 57
2019-12-08 12:00:00 13.3 2 Este 9 Oeste 0 922.1 1.1 60
2019-12-08 11:00:00 11.5 0 Calma 6 Oeste 0 922 1.2 67
2019-12-08 10:00:00 8.2 3 Oeste 10 Oeste 0 921.5 1.1 77
2019-12-08 09:00:00 5.5 6 Oeste 10 Oeste 0 921 0.9 86
2019-12-08 08:00:00 4.3 6 Oeste 10 Oeste 0 920.8 0.6 90
2019-12-08 07:00:00 4 6 Oeste 11 Noroeste 0 920.4 -0.1 90
2019-12-08 06:00:00 4.1 6 Oeste 10 Oeste 0 920.1 -0.5 90
2019-12-08 05:00:00 4.1 5 Oeste 9 Oeste 0 920.2 -0.3 93
2019-12-08 04:00:00 4.3 6 Oeste 12 Noroeste 0 920.5 -0.3 92
2019-12-08 03:00:00 4.4 7 Oeste 12 Oeste 0 920.6 -0.2 92
2019-12-08 02:00:00 4.4 7 Oeste 9 Oeste 0 920.5 -0.2 91
2019-12-08 01:00:00 4.2 6 Oeste 11 Oeste 0 920.8 0.3 91
2019-12-08 00:00:00 5.3 8 Oeste 11 Oeste 0 920.8 0.8 88
2019-12-07 23:00:00 5.5 6 Oeste 10 Noroeste 0 920.7 1 89
2019-12-07 22:00:00 5.3 6 Oeste 10 Oeste 0 920.5 1.3 90
2019-12-07 21:00:00 5.7 5 Oeste 9 Oeste 0 920 1.2 91
2019-12-07 20:00:00 6.9 5 Oeste 8 Noroeste 0 919.7 1.6 88
2019-12-07 19:00:00 8.3 4 Sudoeste 9 Sudoeste 0 919.2 1.4 86
2019-12-07 18:00:00 9.7 5 Oeste 11 Sudoeste 0 918.8 1.3 79
2019-12-07 17:00:00 11 3 Oeste 8 Oeste 0 918.1 0.3 74
2019-12-07 16:00:00 12.8 2 Oeste 7 Este 0 917.8 -0.6 67
2019-12-07 15:00:00 13.5 0 Calma 6 Sudeste 0 917.5 -1.3 63
2019-12-07 14:00:00 14.1 3 Este 13 Este 0 917.8 -1 57
2019-12-07 13:00:00 14.9 3 Nordeste 9 Nordeste 0 918.4 0.2 51
2019-12-07 12:00:00 13.6 3 Este 6 Nordeste 0 918.8 1.2 55
2019-12-07 11:00:00 12.1 2 Este 7 Oeste 0 918.8 1.6 62
2019-12-07 10:00:00 9.1 3 Oeste 10 Oeste 0 918.2 1.3 75
2019-12-07 09:00:00 6.2 6 Oeste 11 Sur 0 917.6 1 84
2019-12-07 08:00:00 5.6 6 Oeste 9 Oeste 0 917.2 0.8 86
2019-12-07 07:00:00 6.7 6 Oeste 14 Sur 0 916.9 0.3 82
2019-12-07 06:00:00 8.2 0 Calma 17 Sur 0 916.6 0.1 76
2019-12-07 05:00:00 8.8 3 Oeste 16 Sur 0 916.4 -0.5 74
2019-12-07 04:00:00 7.9 0 Calma 14 Sur 0 916.6 -0.2 78
2019-12-07 03:00:00 9 5 Sudeste 18 Sur 0 916.5 -0.2 74
2019-12-07 02:00:00 8.7 0 Calma 16 Nordeste 0 916.9 0.6 76
2019-12-07 01:00:00 9.4 6 Nordeste 20 Este 0 916.8 0.7 70
2019-12-07 00:00:00 9.7 5 Sudeste 23 Sudeste 0 916.7 0.8 68
2019-12-06 23:00:00 9.6 8 Sudeste 19 Sudeste 0 916.3 0.5 68
2019-12-06 22:00:00 9.3 6 Sudeste 18 Sudeste 0 916.1 1 69
2019-12-06 21:00:00 8.4 3 Oeste 15 Norte 0 915.9 1.2 74
2019-12-06 20:00:00 8 0 Calma 8 Oeste 0 915.8 1.4 82
2019-12-06 19:00:00 7.9 4 Oeste 9 Oeste 0 915.1 1.1 81
2019-12-06 18:00:00 10.6 3 Oeste 7 Oeste 0 914.7 0.8 73
2019-12-06 17:00:00 12.1 0 Calma 14 Este 0 914.4 0.3 60
2019-12-06 16:00:00 12.5 7 Este 17 Este 0 914 -0.7 57
2019-12-06 15:00:00 13.5 9 Este 18 Este 0 913.9 -1.3 57
2019-12-06 14:00:00 13.8 10 Nordeste 25 Nordeste 0 914.1 -1.1 56
2019-12-06 13:00:00 13.1 14 Este 27 Este 0 914.7 -0.1 60
2019-12-06 12:00:00 12.5 10 Este 21 Este 0 915.2 1.3 63
2019-12-06 11:00:00 11.8 8 Este 12 Este 0 915.2 1.9 66
2019-12-06 10:00:00 11 5 Este 12 Este 0 914.8 2 68
2019-12-06 09:00:00 9 2 Este 17 Este 0 913.9 1.5 74
2019-12-06 08:00:00 9 9 Este 22 Este 0 913.3 1.1 73
2019-12-06 07:00:00 9.1 7 Este 21 Este 0 912.8 0.7 73
2019-12-06 06:00:00 8.9 5 Este 20 Este 0 912.4 0.6 74
2019-12-06 05:00:00 9 9 Este 21 Este 0 912.2 0.4 73
2019-12-06 04:00:00 9.1 10 Este 21 Este 0 912.1 0.2 71
2019-12-06 03:00:00 8.7 6 Este 14 Este 0 911.8 -0.3 71
2019-12-06 02:00:00 9.2 8 Nordeste 31 Este 0 911.8 -0.4 70
2019-12-06 01:00:00 8.8 12 Este 23 Este 0 911.9 -0.1 74
2019-12-06 00:00:00 7.5 4 Este 10 Este 0 912.1 0.5 82
2019-12-05 23:00:00 8.4 6 Este 19 Este 0 912.2 1.1 80
2019-12-05 22:00:00 9 12 Este 22 Este 0 912 1.6 76
2019-12-05 21:00:00 8.7 2 Sudeste 12 Norte 0 911.6 1.7 79
2019-12-05 20:00:00 8.6 2 Este 9 Este 0 911.1 1.8 76
2019-12-05 19:00:00 9.1 4 Este 9 Este 0 910.4 1.6 76
2019-12-05 18:00:00 10.1 4 Nordeste 12 Este 0 909.9 1.3 71
2019-12-05 17:00:00 10.5 3 Sudeste 16 Este 0 909.3 0.5 68
2019-12-05 16:00:00 11.7 5 Nordeste 14 Este 0 908.8 -0.2 59
2019-12-05 15:00:00 12.2 6 Este 14 Este 0 908.6 -1 53
2019-12-05 14:00:00 13 5 Este 14 Nordeste 0 908.8 -0.6 49
2019-12-05 13:00:00 12.1 4 Este 11 Este 0 909 0.4 53
2019-12-05 12:00:00 11.1 3 Este 8 Este 0 909.6 1.4 60
2019-12-05 11:00:00 10.1 5 Nordeste 12 Oeste 0 909.4 1.6 64
2019-12-05 10:00:00 7.8 2 Sudoeste 9 Sur 0 908.6 1.2 76
2019-12-05 09:00:00 3.9 4 Oeste 10 Oeste 0 908.2 1.1 85
2019-12-05 08:00:00 4.3 6 Oeste 11 Oeste 0 907.8 0.7 87
2019-12-05 07:00:00 3.1 6 Oeste 12 Oeste 0 907.4 0.2 92
2019-12-05 06:00:00 2.5 6 Oeste 11 Oeste 0 907.1 0.3 92
2019-12-05 05:00:00 2 6 Oeste 10 Oeste 0 907.1 0.3 88
2019-12-05 04:00:00 2.7 6 Oeste 9 Oeste 0 907.2 0.7 79
2019-12-05 03:00:00 3 4 Oeste 12 Oeste 0 906.8 0.1 79
2019-12-05 02:00:00 2.7 6 Oeste 12 Noroeste 0 906.8 0.3 78
2019-12-05 01:00:00 3.4 5 Oeste 9 Noroeste 0 906.5 0.3 71
2019-12-05 00:00:00 2.4 6 Oeste 12 Noroeste 0 906.7 0.7 72
2019-12-04 23:00:00 2.8 7 Oeste 14 Oeste 0 906.5 1 68
2019-12-04 22:00:00 3.4 7 Oeste 13 Noroeste 0 906.2 0.9 66
2019-12-04 21:00:00 2.8 7 Oeste 13 Oeste 0 906 1 74
2019-12-04 20:00:00 3.3 7 Oeste 12 Oeste 0 905.5 0.7 77
2019-12-04 19:00:00 3.5 5 Oeste 8 Oeste 0 905.3 0.9 85
2019-12-04 18:00:00 6.5 3 Sudoeste 18 Sudoeste 0 905 0.8 78
2019-12-04 17:00:00 7.6 6 Oeste 18 Sudoeste 0 904.8 0 73
2019-12-04 16:00:00 8.1 7 Oeste 16 Oeste 0 904.4 -0.9 73
2019-12-04 15:00:00 8.5 6 Oeste 19 Oeste 0 904.2 -1.9 79
2019-12-04 14:00:00 11.2 5 Oeste 17 Oeste 0 904.8 -1.3 57
2019-12-04 13:00:00 11 5 Sudoeste 17 Noroeste 0 905.3 -0.5 61
2019-12-04 12:00:00 9 6 Sudoeste 19 Noroeste 0 906.1 0.7 80
2019-12-04 11:00:00 9.1 5 Oeste 16 Sudoeste 0 906.1 0.8 84
2019-12-04 10:00:00 7.3 4 Oeste 17 Oeste 0 905.8 0.6 93
2019-12-04 09:00:00 7.2 5 Oeste 13 Sur 0 905.4 0.1 93
2019-12-04 08:00:00 7.8 5 Oeste 18 Noroeste 0 905.3 -0.4 87
2019-12-04 07:00:00 7.7 5 Oeste 14 Sudoeste 0 905.2 -0.9 86
2019-12-04 06:00:00 7.7 4 Oeste 13 Oeste 0 905.3 -1.1 84
2019-12-04 05:00:00 6.5 5 Oeste 10 Noroeste 0 905.7 -1.3 93
2019-12-04 04:00:00 5.3 7 Oeste 12 Oeste 0 906.1 -1.2 93
2019-12-04 03:00:00 5.5 5 Oeste 10 Sudoeste 0 906.4 -1.1 91
2019-12-04 02:00:00 6.6 4 Oeste 10 Oeste 0 907 -0.2 91
2019-12-04 01:00:00 6.9 5 Oeste 11 Oeste 0 907.3 0.2 90
2019-12-04 00:00:00 7.3 4 Oeste 9 Oeste 0 907.5 0.6 88
2019-12-03 23:00:00 7.2 4 Oeste 10 Oeste 0 907.2 0.5 89
2019-12-03 22:00:00 7 5 Oeste 9 Oeste 0 907.1 0.6 89
2019-12-03 21:00:00 8.6 0 Calma 3 Nordeste 0 906.9 0.7 88
2019-12-03 20:00:00 9.3 0 Calma 7 Oeste 0 906.7 0.9 76
2019-12-03 19:00:00 9.5 3 Oeste 7 Oeste 0 906.5 1.1 82
2019-12-03 18:00:00 10 0 Calma 5 Norte 0 906.2 1.2 84
2019-12-03 17:00:00 10.8 0 Calma 14 Oeste 0 905.8 0.3 81
2019-12-03 16:00:00 10.9 4 Oeste 10 Sudoeste 0 905.4 -0.6 76
2019-12-03 15:00:00 10.9 6 Oeste 15 Oeste 0 905 -1.5 76
2019-12-03 14:00:00 12.3 6 Nordeste 11 Este 0 905.5 -1.6 70
2019-12-03 13:00:00 12.1 5 Este 10 Sudeste 0 906 -0.8 69
2019-12-03 12:00:00 11.1 5 Este 13 Este 0 906.5 0 70
2019-12-03 11:00:00 10.1 7 Este 11 Este 0 907.1 0.8 79
2019-12-03 10:00:00 6.4 4 Oeste 8 Oeste 0 906.8 0.9 96
2019-12-03 09:00:00 5.9 4 Oeste 8 Noroeste 0.1 906.5 0.6 95
2019-12-03 08:00:00 6 5 Oeste 9 Oeste 0 906.3 0.2 95
2019-12-03 07:00:00 5.6 4 Oeste 8 Noroeste 0 905.9 -0.6 95
2019-12-03 06:00:00 6.6 3 Oeste 7 Este 0 905.9 -1.1 93
2019-12-03 05:00:00 6.5 3 Oeste 6 Sudoeste 0.1 906.1 -1 93
2019-12-03 04:00:00 7.4 2 Nordeste 10 Este 0 906.5 -0.8 94
2019-12-03 03:00:00 7.6 5 Nordeste 16 Nordeste 0.2 907 -0.5 95
2019-12-03 02:00:00 7.7 6 Este 18 Nordeste 1.1 907.1 -0.4 95
2019-12-03 01:00:00 7.7 4 Nordeste 10 Norte 0.5 907.3 -0.2 95
2019-12-03 00:00:00 7.6 3 Nordeste 12 Este 0.4 907.5 0.5 92
2019-12-02 23:00:00 7.9 4 Este 20 Este 0.1 907.5 1 84
2019-12-02 22:00:00 7.7 9 Nordeste 15 Este 0 907.5 1.9 86
2019-12-02 21:00:00 7.7 4 Nordeste 13 Este 0 907 1.5 86
2019-12-02 20:00:00 7.3 3 Este 11 Este 0 906.5 1.4 88
2019-12-02 19:00:00 7 2 Sudeste 12 Este 0 905.6 0.6 91
2019-12-02 18:00:00 7 4 Nordeste 11 Nordeste 0.1 905.5 0.9 87
2019-12-02 17:00:00 7.4 3 Nordeste 14 Este 0 905.1 0.4 82
2019-12-02 16:00:00 7.4 7 Nordeste 26 Este 0 905 0 83
2019-12-02 15:00:00 8.5 8 Este 14 Este 0 904.6 -0.5 81
2019-12-02 14:00:00 8.1 9 Nordeste 21 Este 0 904.7 -0.5 85
2019-12-02 13:00:00 8.4 6 Nordeste 17 Este 0 905 0.5 84
2019-12-02 12:00:00 8.1 8 Nordeste 21 Este 0.1 905.1 1.1 86
2019-12-02 11:00:00 7.2 4 Nordeste 9 Este 0 905.2 1.5 90
2019-12-02 10:00:00 6.2 2 Sudeste 12 Sudeste 0 904.5 0.9 94
2019-12-02 09:00:00 5.2 5 Oeste 8 Noroeste 0.1 904 0.6 94
2019-12-02 08:00:00 6.3 0 Calma 4 Oeste 0 903.7 0 95
2019-12-02 07:00:00 6.4 0 Calma 9 Oeste 0.8 903.6 -0.3 94
2019-12-02 06:00:00 6.4 4 Oeste 9 Noroeste 0.9 903.4 -0.9 94
2019-12-02 05:00:00 6.5 4 Oeste 10 Sudoeste 0.2 903.7 -1.1 92
2019-12-02 04:00:00 6.6 3 Oeste 9 Noroeste 0.1 903.9 -1.4 92
2019-12-02 03:00:00 6.8 5 Oeste 13 Sur 0.3 904.3 -1.3 92
2019-12-02 02:00:00 7 4 Oeste 13 Sudoeste 0.1 904.8 -0.9 91
2019-12-02 01:00:00 7.1 5 Oeste 15 Noroeste 0 905.3 -0.9 92
2019-12-02 00:00:00 7.5 3 Oeste 22 Sudoeste 0.6 905.6 -0.8 92
2019-12-01 23:00:00 7.5 6 Oeste 19 Sudoeste 1 905.7 -1.1 93
2019-12-01 22:00:00 7.4 5 Sudoeste 24 Sudoeste 0.8 906.2 -0.4 93
2019-12-01 21:00:00 7.5 4 Oeste 20 Sudoeste 2.7 906.4 -0.2 93
2019-12-01 20:00:00 7.7 9 Oeste 23 Sudoeste 0.3 906.8 0.1 91
2019-12-01 19:00:00 7.9 6 Oeste 25 Sudoeste 0.1 906.6 -0.5 91
2019-12-01 18:00:00 8.1 0 Calma 26 Noroeste 2.5 906.6 -1.5 94
2019-12-01 17:00:00 8.2 8 Sudoeste 30 Sudoeste 4.6 906.7 -2.3 94
2019-12-01 16:00:00 8.6 4 Sudoeste 21 Oeste 2.2 907.1 -2.6 92
2019-12-01 15:00:00 8.4 5 Oeste 22 Sudoeste 2.8 908.1 -2.6 92
2019-12-01 14:00:00 9.3 7 Oeste 23 Sudoeste 0 909 -2 83
2019-12-01 13:00:00 10 6 Oeste 21 Sudoeste 0 909.7 -1.3 73
2019-12-01 12:00:00 10.7 8 Oeste 18 Oeste 0 910.7 0 69
2019-12-01 11:00:00 9.6 6 Oeste 23 Sudoeste 0 911 0 78
2019-12-01 10:00:00 8.7 6 Oeste 22 Sudoeste 0 911 -0.2 86
2019-12-01 09:00:00 7.6 6 Oeste 21 Oeste 0 910.7 -0.5 87
2019-12-01 08:00:00 7.7 6 Oeste 18 Sudoeste 0.1 911 -1.1 86
2019-12-01 07:00:00 7.5 4 Oeste 16 Noroeste 0 911.2 -1.2 89
2019-12-01 06:00:00 8 4 Oeste 21 Sudoeste 0.3 911.2 -1.5 89
2019-12-01 05:00:00 8.5 4 Oeste 31 Noroeste 0.4 912.1 -1 89
2019-12-01 04:00:00 9.2 8 Oeste 28 Noroeste 1.3 912.4 -1.5 91
2019-12-01 03:00:00 10.7 8 Oeste 19 Sudoeste 4.7 912.7 -1.9 93
2019-12-01 02:00:00 10.3 7 Sudoeste 26 Oeste 2.4 913.1 -1.8 95
2019-12-01 01:00:00 9.9 6 Oeste 21 Noroeste 0 913.9 -1.6 95
2019-12-01 00:00:00 9.6 6 Oeste 16 Oeste 0 914.6 -1.3 89
2019-11-30 23:00:00 10.1 7 Oeste 21 Oeste 0 914.9 -0.8 86
2019-11-30 22:00:00 9.6 7 Oeste 18 Noroeste 0 915.5 -0.2 86
2019-11-30 21:00:00 9.5 6 Oeste 15 Sudoeste 0 915.9 0.4 89
2019-11-30 20:00:00 10 6 Oeste 17 Sudoeste 0 915.7 0.2 89
2019-11-30 19:00:00 10.4 6 Oeste 18 Oeste 0 915.7 0 87
2019-11-30 18:00:00 11.2 6 Oeste 17 Sudoeste 0 915.5 -0.6 84
2019-11-30 17:00:00 12.3 6 Oeste 16 Sudoeste 0 915.5 -1.4 78
2019-11-30 16:00:00 14 6 Oeste 16 Sudoeste 0 915.7 -1.9 67
2019-11-30 15:00:00 16 4 Sudoeste 15 Oeste 0 916.1 -1.8 56
2019-11-30 14:00:00 16.1 6 Oeste 18 Oeste 0 916.9 -0.9 51
2019-11-30 13:00:00 16.6 5 Oeste 19 Oeste 0 917.6 0 47
2019-11-30 12:00:00 18 3 Oeste 12 Sudoeste 0 917.9 0.3 37
2019-11-30 11:00:00 15.4 9 Oeste 18 Oeste 0 917.8 0.3 38
2019-11-30 10:00:00 12 6 Oeste 11 Noroeste 0 917.6 0.4 59
2019-11-30 09:00:00 9.3 6 Oeste 13 Oeste 0 917.6 0.8 61
2019-11-30 08:00:00 7.8 6 Oeste 12 Oeste 0 917.5 0.3 65
2019-11-30 07:00:00 8 8 Oeste 14 Oeste 0 917.2 -0.3 56
2019-11-30 06:00:00 9.5 8 Oeste 14 Noroeste 0 916.8 -0.7 48
2019-11-30 05:00:00 8.5 7 Oeste 12 Oeste 0 917.2 -0.5 56
2019-11-30 04:00:00 9.8 4 Oeste 13 Oeste 0 917.5 0 48
2019-11-30 03:00:00 10.4 6 Oeste 13 Noroeste 0 917.5 0 46
2019-11-30 02:00:00 11.1 8 Oeste 14 Oeste 0 917.7 -0.1 43
2019-11-30 01:00:00 10.8 8 Oeste 13 Oeste 0 917.5 -0.6 52
2019-11-30 00:00:00 11 8 Oeste 13 Oeste 0 917.5 -0.6 49
2019-11-29 23:00:00 9.1 7 Oeste 14 Oeste 0 917.8 -0.2 66
2019-11-29 22:00:00 8 9 Oeste 11 Oeste 0 918.1 0.1 74
2019-11-29 21:00:00 7.7 7 Oeste 10 Oeste 0 918.1 0.4 74
2019-11-29 20:00:00 8.1 6 Oeste 9 Oeste 0 918 0.7 80
2019-11-29 19:00:00 8.6 6 Oeste 9 Oeste 0 918 0.9 89
2019-11-29 18:00:00 10.2 5 Oeste 8 Oeste 0 917.7 0.4 88
2019-11-29 17:00:00 11.8 3 Oeste 5 Sur 0 917.3 -0.3 82
2019-11-29 16:00:00 13.3 0 Calma 6 Sudoeste 0 917.1 -1.1 76
2019-11-29 15:00:00 15.7 3 Sur 8 Este 0 917.3 -1.1 64
2019-11-29 14:00:00 16.2 3 Este 9 Este 0 917.6 -0.8 59
2019-11-29 13:00:00 15.5 5 Este 8 Este 0 918.2 0 64
2019-11-29 12:00:00 14.6 4 Este 7 Este 0 918.4 0.7 64
2019-11-29 11:00:00 13.1 3 Este 6 Nordeste 0 918.4 1.2 68
2019-11-29 10:00:00 10.7 2 Sur 8 Sur 0 918.2 1.2 82
2019-11-29 09:00:00 7 6 Oeste 10 Oeste 0 917.7 1.2 94
2019-11-29 08:00:00 5.4 6 Oeste 11 Oeste 0 917.2 0.8 95
2019-11-29 07:00:00 5.4 6 Oeste 10 Oeste 0 917 0.4 95
2019-11-29 06:00:00 5.7 7 Oeste 10 Oeste 0 916.5 0.3 95
2019-11-29 05:00:00 5.7 5 Oeste 12 Oeste 0 916.4 0.2 94
2019-11-29 04:00:00 5.6 5 Oeste 11 Oeste 0 916.6 0.1 95
2019-11-29 03:00:00 5.9 6 Oeste 10 Noroeste 0 916.2 -0.4 94
2019-11-29 02:00:00 5.8 5 Oeste 10 Oeste 0 916.2 -0.3 94
2019-11-29 01:00:00 5.9 6 Oeste 10 Oeste 0 916.5 0.1 95
2019-11-29 00:00:00 5.9 8 Oeste 12 Oeste 0 916.6 0.4 94
2019-11-28 23:00:00 6 6 Oeste 11 Oeste 0 916.5 0.8 93
2019-11-28 22:00:00 6.2 5 Oeste 9 Oeste 0 916.4 1.2 93
2019-11-28 21:00:00 6.7 6 Oeste 10 Oeste 0 916.2 1.3 93
2019-11-28 20:00:00 8 4 Oeste 9 Oeste 0 915.7 0.8 93
2019-11-28 19:00:00 8.4 4 Oeste 8 Oeste 0 915.2 0.5 90
2019-11-28 18:00:00 11 3 Oeste 6 Oeste 0 914.9 0 84
2019-11-28 17:00:00 12 2 Sudoeste 9 Oeste 0 914.9 -0.3 81
2019-11-28 16:00:00 13.4 4 Oeste 10 Noroeste 0 914.7 -1.1 75
2019-11-28 15:00:00 14.9 0 Calma 11 Sudoeste 0 914.9 -1.4 64
2019-11-28 14:00:00 15 0 Calma 9 Este 0 915.2 -0.8 65
2019-11-28 13:00:00 14 5 Este 10 Este 0 915.8 -0.1 68
2019-11-28 12:00:00 12.9 5 Este 10 Este 0 916.3 0.9 69
2019-11-28 11:00:00 12.2 4 Este 9 Este 0 916 1.5 73
2019-11-28 10:00:00 11.4 5 Este 10 Este 0 915.9 1.5 76
2019-11-28 09:00:00 8.5 2 Sur 12 Sur 0 915.4 1.2 86
2019-11-28 08:00:00 8 4 Sudoeste 12 Oeste 0 914.5 0.4 84
2019-11-28 07:00:00 8.7 0 Calma 13 Oeste 0 914.4 0.2 84
2019-11-28 06:00:00 8.4 3 Sudoeste 13 Noroeste 0 914.2 0.3 85
2019-11-28 05:00:00 7.6 4 Oeste 11 Oeste 0 914.1 0.2 90
2019-11-28 04:00:00 7.4 4 Oeste 8 Oeste 0 914.2 -0.1 91
2019-11-28 03:00:00 8.8 3 Oeste 11 Oeste 0 913.9 -0.5 84
2019-11-28 02:00:00 8.9 4 Oeste 14 Oeste 0 913.9 -0.4 83
2019-11-28 01:00:00 9.6 3 Oeste 17 Oeste 0 914.3 0.3 81
2019-11-28 00:00:00 9.6 5 Oeste 18 Noroeste 0 914.4 0.9 85
2019-11-27 23:00:00 9.7 6 Oeste 21 Noroeste 0 914.3 1.2 88
2019-11-27 22:00:00 10.3 8 Oeste 18 Sudoeste 0 914 1.4 85
2019-11-27 21:00:00 10.7 6 Oeste 24 Noroeste 0 913.5 1.1 84
2019-11-27 20:00:00 11.2 8 Oeste 19 Sudoeste 0 913.1 1 87
2019-11-27 19:00:00 11.4 3 Oeste 16 Oeste 0 912.6 0.5 86
2019-11-27 18:00:00 11.5 6 Oeste 22 Oeste 0 912.4 0.3 89
2019-11-27 17:00:00 12 6 Oeste 27 Noroeste 0 912.1 -0.3 85
2019-11-27 16:00:00 12.6 6 Oeste 17 Oeste 0 912.1 -0.7 82
2019-11-27 15:00:00 12.7 7 Oeste 23 Oeste 0 912.1 -1.4 78
2019-11-27 14:00:00 13.9 7 Oeste 23 Sur 0 912.4 -1.1 75
2019-11-27 06:00:00 10.3 6 Oeste 24 Sudoeste 0 911.1 -0.1 93
2019-11-27 05:00:00 10.5 8 Sudoeste 23 Sudoeste 0.5 911.1 -0.6 94
2019-11-27 04:00:00 11.7 8 Oeste 20 Oeste 4.4 911.4 -0.7 93
2019-11-27 03:00:00 11.6 6 Sudoeste 18 Sur 5.6 911.2 -1.1 94
2019-11-27 02:00:00 11.3 6 Sudoeste 29 Sudoeste 5.8 911.7 -0.7 94
2019-11-27 01:00:00 10.9 7 Oeste 26 Sudoeste 4.1 912.1 -0.1 94
2019-11-27 00:00:00 10.9 10 Sudoeste 26 Sudoeste 1.2 912.3 0 93
2019-11-26 23:00:00 11.3 9 Sudoeste 31 Sudoeste 0 912.4 0.1 91
2019-11-26 22:00:00 11.4 12 Sudoeste 29 Sur 0 912.2 0.2 89
2019-11-26 21:00:00 11.5 10 Sudoeste 31 Sudoeste 0 912.3 0.4 90
2019-11-26 20:00:00 11.5 9 Sudoeste 33 Oeste 0 912.3 0.3 91
2019-11-26 19:00:00 11.9 8 Sudoeste 24 Sudoeste 0 912 0.1 89
2019-11-26 18:00:00 11.7 7 Oeste 28 Sudoeste 0.1 911.9 0 89
2019-11-26 17:00:00 12.3 9 Oeste 26 Sudoeste 0.3 912 -0.6 91
2019-11-26 16:00:00 13.2 6 Oeste 19 Sudoeste 0.5 911.9 -1.4 94
2019-11-26 15:00:00 13.9 6 Oeste 18 Sudoeste 0 911.9 -2.2 91
2019-11-26 14:00:00 13.5 6 Oeste 19 Oeste 0 912.6 -1.6 93
2019-11-26 13:00:00 13.3 5 Oeste 14 Oeste 0 913.3 -0.9 91
2019-11-26 12:00:00 14 5 Oeste 19 Sudoeste 0 914.1 0 89
2019-11-26 11:00:00 13.2 4 Oeste 12 Noroeste 0.1 914.2 0.5 92
2019-11-26 10:00:00 12.2 0 Calma 9 Noroeste 0 914.2 0.7 95
2019-11-26 09:00:00 11.4 0 Calma 6 Oeste 0.2 914.1 0.8 96
2019-11-26 08:00:00 11.4 0 Calma 12 Oeste 0 913.7 0 95
2019-11-26 07:00:00 11.4 3 Oeste 9 Oeste 0 913.5 -0.5 92
2019-11-26 06:00:00 11.6 4 Oeste 14 Noroeste 0 913.3 -0.8 93
2019-11-26 05:00:00 11.6 3 Nordeste 14 Noroeste 0 913.7 -0.5 92
2019-11-26 04:00:00 10.9 5 Oeste 16 Oeste 0 914 -1 88
2019-11-26 03:00:00 11.6 7 Oeste 17 Sudoeste 0.1 914.1 -1 91
2019-11-26 02:00:00 12 6 Oeste 15 Noroeste 0 914.2 -1 92
2019-11-26 01:00:00 12.2 4 Oeste 17 Oeste 0.1 915 -0.3 91
2019-11-26 00:00:00 12.9 6 Oeste 16 Sudoeste 0.4 915.1 0.1 93
2019-11-25 23:00:00 13 4 Oeste 19 Sur 0.9 915.2 0.5 95
2019-11-25 22:00:00 13 4 Oeste 17 Oeste 1 915.3 0.7 95
2019-11-25 21:00:00 12.8 4 Oeste 18 Sudoeste 0.7 915 0.6 94
2019-11-25 20:00:00 12.5 7 Oeste 26 Sudoeste 2.2 914.7 0.4 95
2019-11-25 19:00:00 12.4 6 Oeste 20 Sudoeste 1.3 914.6 0.5 94
2019-11-25 18:00:00 12.2 6 Oeste 23 Sudoeste 1.8 914.4 0 94
2019-11-25 17:00:00 12.2 7 Oeste 22 Norte 2.4 914.3 -0.1 94
2019-11-25 16:00:00 12.1 6 Oeste 22 Sudoeste 1.8 914.1 -0.8 94
2019-11-25 15:00:00 12.2 8 Oeste 24 Sudoeste 1.3 914.4 -1.3 94
2019-11-25 14:00:00 12 8 Oeste 26 Sudoeste 0 914.4 -1.4 93
2019-11-25 13:00:00 12.2 8 Sudoeste 23 Sur 0 914.9 -0.4 92
2019-11-25 12:00:00 11.7 7 Oeste 25 Sudoeste 0.1 915.7 0.6 94
2019-11-25 11:00:00 11.5 6 Oeste 19 Sudoeste 0.3 915.8 1.1 95
2019-11-25 10:00:00 11.1 5 Oeste 19 Sudoeste 0.3 915.3 0.9 93
2019-11-25 09:00:00 10.2 5 Oeste 16 Sudoeste 0.7 915.1 1 94
2019-11-25 08:00:00 10 5 Oeste 17 Sudoeste 0 914.7 0.6 93
2019-11-25 07:00:00 9.9 4 Oeste 16 Oeste 0 914.4 0.3 92
2019-11-25 06:00:00 9.1 6 Oeste 18 Oeste 0 914.1 -0.1 93
2019-11-25 05:00:00 9.1 8 Oeste 18 Oeste 0 914.1 -0.2 87
2019-11-25 04:00:00 9.2 8 Oeste 20 Oeste 0 914.1 -0.5 86
2019-11-25 03:00:00 9.5 10 Oeste 31 Noroeste 0 914.2 -0.7 84
2019-11-25 02:00:00 7.5 7 Noroeste 18 Oeste 0 914.3 -0.5 91
2019-11-25 01:00:00 7.4 2 Este 17 Oeste 0 914.6 -0.2 88
2019-11-25 00:00:00 8.3 5 Norte 26 Noroeste 0 914.9 0.2 82
2019-11-24 23:00:00 8.1 6 Sudoeste 19 Noroeste 0 914.8 0.2 82
2019-11-24 22:00:00 8.7 3 Oeste 27 Noroeste 0 914.8 0.8 79
2019-11-24 21:00:00 8.1 5 Oeste 23 Noroeste 0 914.7 1.2 80
2019-11-24 20:00:00 7.9 6 Oeste 19 Noroeste 0 914.6 1.5 81
2019-11-24 19:00:00 8 5 Oeste 14 Noroeste 0 914 0.9 80
2019-11-24 18:00:00 8 6 Oeste 15 Noroeste 0 913.5 0.5 80
2019-11-24 17:00:00 8.2 6 Oeste 18 Oeste 0 913.1 0.2 77
2019-11-24 16:00:00 9.1 6 Oeste 19 Oeste 0 913.1 -0.4 71
2019-11-24 15:00:00 10.6 6 Oeste 21 Sudoeste 0 913 -1.1 62
2019-11-24 14:00:00 11 8 Oeste 18 Oeste 0 912.9 -0.8 62
2019-11-24 13:00:00 10.6 8 Oeste 17 Oeste 0 913.5 -0.1 61
2019-11-24 12:00:00 11 4 Oeste 15 Oeste 0 914.1 1 58
2019-11-24 11:00:00 9.4 4 Noroeste 19 Noroeste 0 913.7 1.2 63
2019-11-24 10:00:00 8.9 0 Calma 22 Sudoeste 0 913.6 1.8 61
2019-11-24 09:00:00 6.9 0 Calma 15 Oeste 0 913.1 1.8 73
2019-11-24 08:00:00 4.3 6 Oeste 21 Noroeste 0 912.5 1.4 76
2019-11-24 07:00:00 5.6 5 Oeste 14 Noroeste 0 911.8 0.7 71
2019-11-24 06:00:00 5.9 4 Noroeste 15 Noroeste 0 911.3 0.1 72
2019-11-24 05:00:00 6.6 3 Oeste 14 Noroeste 0 911.1 -0.1 68
2019-11-24 04:00:00 6.7 5 Oeste 22 Sur 0 911.1 -0.1 70
2019-11-24 03:00:00 6.4 8 Oeste 24 Noroeste 0 911.2 -0.1 69
2019-11-24 02:00:00 6.3 4 Oeste 18 Noroeste 0 911.2 0 76
2019-11-24 01:00:00 7.1 6 Oeste 21 Noroeste 0 911.2 0.5 79
2019-11-24 00:00:00 7.4 10 Oeste 32 Oeste 0 911.3 0.9 77
2019-11-23 23:00:00 7.5 10 Noroeste 24 Noroeste 0 911.2 1.4 79
2019-11-23 22:00:00 7.8 12 Oeste 29 Noroeste 0 910.7 1.9 76
2019-11-23 21:00:00 7.7 12 Oeste 31 Noroeste 0 910.4 2.5 77
2019-11-23 20:00:00 7.7 9 Oeste 31 Noroeste 0 909.8 2.4 83
2019-11-23 19:00:00 7.8 7 Oeste 29 Noroeste 0 908.8 2.2 84
2019-11-23 18:00:00 8.1 13 Noroeste 36 Oeste 0 907.9 1.5 78
2019-11-23 17:00:00 8.3 8 Oeste 38 Oeste 0 907.4 1.1 76
2019-11-23 16:00:00 8 9 Oeste 37 Oeste 0 906.6 0.5 78
2019-11-23 15:00:00 8.9 10 Oeste 39 Noroeste 0 906.4 0 73
2019-11-23 14:00:00 9 11 Oeste 36 Sudoeste 0 906.3 0.8 70
2019-11-23 13:00:00 9.1 10 Oeste 33 Oeste 0 906.1 1.5 72
2019-11-23 12:00:00 7.8 9 Oeste 37 Noroeste 0 906.4 2.5 76
2019-11-23 11:00:00 7.4 10 Oeste 33 Sudoeste 0.1 905.5 2.9 83
2019-11-23 10:00:00 7.3 9 Oeste 41 Noroeste 0 904.6 2.6 88
2019-11-23 09:00:00 7 11 Oeste 40 Oeste 1 903.9 2.4 92
2019-11-23 08:00:00 7 10 Oeste 29 Noroeste 1.2 902.6 1.3 91
2019-11-23 07:00:00 7.5 13 Oeste 50 Oeste 5.4 902 0.6 89
2019-11-23 06:00:00 7.9 13 Oeste 43 Sudoeste 4 901.5 0.3 93
2019-11-23 05:00:00 8.4 13 Oeste 50 Sudoeste 0 901.3 0.2 87
2019-11-23 04:00:00 8.8 10 Oeste 45 Sudoeste 0 901.4 0.7 88
2019-11-23 03:00:00 8.8 16 Oeste 45 Oeste 0.1 901.2 0.3 87
2019-11-23 02:00:00 8.7 11 Oeste 41 Oeste 0.3 901.1 0.6 90
2019-11-23 01:00:00 9.7 8 Oeste 31 Sudoeste 0.4 900.7 0.1 94
2019-11-23 00:00:00 9.3 11 Oeste 39 Sudoeste 0 900.9 0.9 92
2019-11-22 23:00:00 9.5 14 Oeste 45 Sudoeste 0 900.5 2.3 90
2019-11-22 22:00:00 9.5 12 Oeste 37 Sudoeste 0.1 900.6 2.9 91
2019-11-22 21:00:00 10.4 14 Oeste 45 Oeste 4.6 900 2.1 92
2019-11-22 20:00:00 13.2 11 Oeste 36 Sudoeste 33.5 898.2 0.4 95
2019-11-22 19:00:00 13.2 9 Oeste 34 Sudoeste 15.6 897.7 -0.6 95
2019-11-22 18:00:00 12.9 9 Sudoeste 43 Sudoeste 11.4 897.9 -0.8 96
2019-11-22 17:00:00 12.7 8 Oeste 45 Sudoeste 4.5 897.8 -1.4 95
2019-11-22 16:00:00 12.1 11 Oeste 45 Sudoeste 0.2 898.3 -2 94
2019-11-22 15:00:00 12.5 14 Sudoeste 51 Sudoeste 5.1 898.7 -3.1 95
2019-11-22 14:00:00 12.4 9 Sudoeste 32 Oeste 9.3 899.2 -3.2 94
2019-11-22 13:00:00 12 8 Sudoeste 36 Sudoeste 2.2 900.3 -1.8 92
2019-11-22 12:00:00 12.1 7 Sudoeste 35 Sudoeste 2.4 901.8 -0.3 94
2019-11-22 11:00:00 11.9 11 Sudoeste 42 Noroeste 0.4 902.4 -0.3 95
2019-11-22 10:00:00 12.1 8 Oeste 36 Sudoeste 1.7 902.1 -0.2 96
2019-11-22 09:00:00 12 9 Oeste 32 Sudoeste 5.1 902.1 -0.8 96
2019-11-22 08:00:00 11.6 8 Sudoeste 30 Oeste 11.4 902.7 -0.7 95
2019-11-22 07:00:00 11.8 4 Sudoeste 18 Noroeste 8 902.3 -1.5 96
2019-11-22 06:00:00 11.6 3 Sudoeste 25 Oeste 4.6 902.9 -1 95
2019-11-22 05:00:00 11.5 8 Sudoeste 31 Sudoeste 2.3 903.4 -1 96
2019-11-22 04:00:00 11.1 2 Sudoeste 21 Sudoeste 4.3 903.8 -1.1 95
2019-11-22 03:00:00 10.9 6 Sudoeste 20 Sudoeste 3.1 903.9 -1.4 95
2019-11-22 02:00:00 10.5 4 Oeste 23 Sudoeste 1.5 904.4 -1.3 96
2019-11-22 01:00:00 10.1 4 Sudoeste 21 Sudoeste 0.6 904.9 -1 96
2019-11-22 00:00:00 10 4 Oeste 18 Sudoeste 1.2 905.3 -0.7 95
2019-11-21 23:00:00 9.7 5 Oeste 17 Sudoeste 1.9 905.7 0 94
2019-11-21 22:00:00 9.6 4 Oeste 21 Sudoeste 1.8 905.9 0.2 94
2019-11-21 21:00:00 9.8 4 Sudoeste 21 Oeste 0.8 906 0.7 93
2019-11-21 20:00:00 9.5 6 Oeste 20 Sudoeste 0.1 905.7 0.8 93
2019-11-21 19:00:00 9.6 6 Oeste 26 Sur 0.1 905.7 0.7 93
2019-11-21 18:00:00 9.7 6 Oeste 32 Oeste 0 905.3 0.3 93
2019-11-21 17:00:00 9.9 6 Oeste 29 Noroeste 0.9 904.9 -0.8 94
2019-11-21 16:00:00 10 10 Oeste 26 Oeste 10.6 905 -1.2 92
2019-11-21 15:00:00 10.2 4 Sudoeste 29 Noroeste 0.6 905 -1.8 92
2019-11-21 14:00:00 10.1 5 Oeste 22 Oeste 0.6 905.7 -1.4 90
2019-11-21 13:00:00 10.6 5 Sudoeste 27 Sudoeste 0 906.2 -0.8 88
2019-11-21 12:00:00 10.5 7 Oeste 25 Sudoeste 0.1 906.8 0.2 88
2019-11-21 11:00:00 10.1 5 Oeste 18 Sudoeste 0 907.1 0.7 91
2019-11-21 10:00:00 9.6 4 Oeste 18 Noroeste 0 907 0.9 91
2019-11-21 09:00:00 9.3 6 Oeste 24 Sudoeste 0.1 906.6 0.6 93
2019-11-21 08:00:00 9.1 0 Calma 22 Noroeste 0.6 906.4 0.1 94
2019-11-21 07:00:00 8.6 5 Sudoeste 25 Oeste 2.1 906.1 -0.5 93
2019-11-21 06:00:00 8.8 3 Oeste 21 Sudoeste 0 906 -0.8 95
2019-11-21 05:00:00 8.8 5 Oeste 27 Oeste 2.1 906.3 -0.7 94
2019-11-21 04:00:00 8.6 4 Oeste 18 Sur 2.2 906.6 -0.8 94
2019-11-21 03:00:00 8.2 5 Oeste 13 Oeste 3.2 906.8 -0.6 94
2019-11-21 02:00:00 8 5 Sudoeste 16 Sudoeste 4.4 907 -0.7 94
2019-11-21 01:00:00 7.9 4 Oeste 26 Sudoeste 0.6 907.4 -0.1 93
2019-11-21 00:00:00 7.6 6 Sudoeste 17 Noroeste 2.7 907.4 0.1 94
2019-11-20 23:00:00 7.4 4 Oeste 16 Sudoeste 0 907.7 0.8 90
2019-11-20 22:00:00 7.3 4 Oeste 15 Sudoeste 0 907.5 1.3 90
2019-11-20 21:00:00 6.9 6 Sudoeste 19 Sudoeste 0 907.3 1.5 88
2019-11-20 20:00:00 7.3 8 Oeste 23 Oeste 0 906.9 1 88
2019-11-20 19:00:00 7.8 7 Oeste 30 Sudoeste 0 906.2 0.6 91
2019-11-20 18:00:00 8.1 8 Sudoeste 29 Sudoeste 0 905.8 0.1 89
2019-11-20 17:00:00 8.1 10 Oeste 27 Noroeste 0 905.9 -0.7 89
2019-11-20 16:00:00 8.3 7 Sudoeste 28 Oeste 0.1 905.6 -1.5 87
2019-11-20 15:00:00 8.5 4 Oeste 22 Oeste 1.1 905.7 -2.3 89
2019-11-20 14:00:00 8.6 6 Sudoeste 30 Sudoeste 0.2 906.6 -1.7 88
2019-11-20 13:00:00 7.8 5 Oeste 18 Sudoeste 1.4 907.1 -0.9 92
2019-11-20 12:00:00 7.9 6 Sudoeste 18 Sudoeste 2.2 908 0.1 91
2019-11-20 11:00:00 7.5 7 Oeste 25 Sudoeste 4.5 908.3 0.3 92
2019-11-20 10:00:00 7.4 6 Oeste 23 Noroeste 0.4 908 0.4 92
2019-11-20 09:00:00 6.9 8 Sudoeste 20 Sudoeste 0 907.9 0.1 87
2019-11-20 08:00:00 6.1 8 Sudoeste 25 Sudoeste 0 908 -0.2 79
2019-11-20 07:00:00 4.8 8 Oeste 19 Sudoeste 0 907.6 -1 49
2019-11-20 06:00:00 4.4 6 Oeste 12 Oeste 0 907.8 -1.2 50
2019-11-20 05:00:00 3.8 6 Oeste 11 Oeste 0 908.2 -1.2 55
2019-11-20 04:00:00 4.2 7 Oeste 12 Oeste 0 908.6 -1.2 55
2019-11-20 03:00:00 4.5 6 Oeste 12 Oeste 0 909 -1.1 74
2019-11-20 02:00:00 4.8 5 Oeste 12 Noroeste 0 909.4 -1.3 77
2019-11-20 01:00:00 3.7 6 Oeste 13 Sudoeste 0 909.8 -1.2 70
2019-11-20 00:00:00 3.3 7 Oeste 10 Oeste 0 910.1 -1 86
2019-11-19 23:00:00 3.7 5 Oeste 8 Oeste 0 910.7 -0.4 83
2019-11-19 22:00:00 5.7 4 Oeste 6 Oeste 0 911 -0.1 79
2019-11-19 21:00:00 6.7 3 Oeste 10 Sudoeste 0 911.1 0.2 78
2019-11-19 20:00:00 6.6 5 Oeste 12 Oeste 0 911.1 0.1 79
2019-11-19 19:00:00 7 4 Oeste 13 Sudoeste 0 911.1 0 80
2019-11-19 18:00:00 7.4 5 Oeste 13 Sudoeste 0 910.9 -0.6 76
2019-11-19 17:00:00 8.6 5 Oeste 11 Oeste 0 911 -0.8 62
2019-11-19 16:00:00 10 3 Este 10 Noroeste 0 911.1 -1.3 63
2019-11-19 15:00:00 10.3 2 Nordeste 9 Sudoeste 0 911.5 -1.6 59
2019-11-19 14:00:00 9.8 5 Este 8 Este 0 911.8 -1.7 61
2019-11-19 13:00:00 10.2 0 Calma 6 Sur 0 912.4 -1.1 60
2019-11-19 12:00:00 9.8 3 Sudoeste 10 Sudoeste 0 913.1 -0.5 60
2019-11-19 11:00:00 8.8 5 Oeste 15 Sudoeste 0 913.5 0.5 66
2019-11-19 10:00:00 6.6 3 Oeste 8 Oeste 0 913.5 0.6 74
2019-11-19 09:00:00 2.3 5 Oeste 13 Oeste 0 913.6 1 86
2019-11-19 08:00:00 1.8 5 Oeste 11 Noroeste 0 913 0.4 88
2019-11-19 07:00:00 2.4 5 Oeste 10 Noroeste 0 912.9 0.3 88
2019-11-19 06:00:00 2.5 5 Oeste 9 Noroeste 0 912.6 0 92
2019-11-19 05:00:00 2.3 4 Oeste 8 Oeste 0 912.6 -0.2 92
2019-11-19 04:00:00 3 4 Oeste 9 Oeste 0 912.6 -0.8 92
2019-11-19 03:00:00 2.6 5 Oeste 9 Oeste 0 912.6 -0.9 92
2019-11-19 02:00:00 2.2 6 Oeste 9 Oeste 0 912.8 -0.6 92
2019-11-19 01:00:00 2.9 8 Oeste 11 Oeste 0 913.4 0.1 89
2019-11-19 00:00:00 3.4 5 Oeste 9 Oeste 0 913.5 0.6 88
2019-11-18 23:00:00 4 5 Oeste 9 Sudoeste 0 913.4 0.7 85
2019-11-18 22:00:00 3.4 6 Oeste 10 Noroeste 0 913.3 1.3 88
2019-11-18 21:00:00 3.5 6 Oeste 9 Oeste 0 912.9 1.3 87
2019-11-18 20:00:00 3.9 5 Oeste 9 Oeste 0 912.7 1.4 86
2019-11-18 19:00:00 5.2 4 Oeste 8 Sudoeste 0 912 1.3 81
2019-11-18 18:00:00 6.1 3 Sudoeste 7 Sudoeste 0 911.6 1.1 79
2019-11-18 17:00:00 7.1 0 Calma 10 Este 0 911.3 0.9 72
2019-11-18 16:00:00 8.3 0 Calma 14 Nordeste 0 910.7 -- 66
2019-11-18 15:00:00 9.6 9 Este 18 Este 0 910.5 0.3 61
2019-11-18 14:00:00 9.3 10 Este 22 Este 0 910.4 0.6 63
2019-11-18 13:00:00 -- 2 Este 13 Norte 0 -- -- --
2019-11-18 12:00:00 7.5 5 Este 31 Noroeste 0 910.2 1.1 52
2019-11-18 11:00:00 6.8 10 Noroeste 30 Noroeste 0 909.8 1.3 52
2019-11-18 10:00:00 6 6 Oeste 31 Sudoeste 0 909.3 1.2 56
2019-11-18 09:00:00 5 11 Oeste 33 Norte 0 909.1 2.2 62
2019-11-18 08:00:00 5.1 5 Sudoeste 17 Noroeste 0 908.5 1.7 60
2019-11-18 07:00:00 5.6 5 Oeste 38 Noroeste 0 908.1 1 60
2019-11-18 06:00:00 5.8 17 Noroeste 40 Sudoeste 0 906.9 -0.7 46
2019-11-18 05:00:00 7.4 9 Oeste 34 Oeste 0 906.8 -1 70
2019-11-18 04:00:00 9.7 14 Oeste 40 Oeste 1.4 907.1 -1.7 73
2019-11-18 03:00:00 9.8 7 Oeste 39 Noroeste 9.2 907.6 -1.6 72
2019-11-18 02:00:00 10 9 Oeste 50 Sudoeste 3 907.8 -2.1 72
2019-11-18 01:00:00 9.8 9 Oeste 43 Oeste 3.9 908.8 -1.6 73
2019-11-18 00:00:00 10.1 10 Oeste 33 Noroeste 7.1 909.2 -1.3 73
2019-11-17 23:00:00 10 8 Oeste 39 Sudoeste 1 909.9 -1.2 73
2019-11-17 22:00:00 10.1 13 Oeste 44 Sudoeste 1.8 910.4 -0.9 73
2019-11-17 21:00:00 10.1 8 Sudoeste 37 Noroeste 0.9 910.5 -1.4 73
2019-11-17 20:00:00 10.2 8 Oeste 36 Noroeste 2.9 911.1 -1.2 73
2019-11-17 19:00:00 9.8 7 Oeste 22 Sudoeste 0.6 911.3 -1.1 72
2019-11-17 18:00:00 9.5 8 Oeste 26 Noroeste 0.3 911.9 -0.7 73
2019-11-17 17:00:00 9.5 4 Oeste 22 Sudoeste 2.3 912.3 -1 72
2019-11-17 16:00:00 8.8 7 Oeste 19 Sudoeste 2.6 912.4 -1.5 72
2019-11-17 15:00:00 8.2 9 Sudoeste 25 Sudoeste 4.3 912.6 -1.8 71
2019-11-17 14:00:00 7.8 6 Sudoeste 22 Oeste 4.6 913.3 -1.1 71
2019-11-17 13:00:00 7.9 9 Sudoeste 30 Sudoeste 4 913.9 -0.5 69
2019-11-17 12:00:00 7.7 11 Sudoeste 32 Sudoeste 0.9 914.4 0.4 69
2019-11-17 11:00:00 6.5 14 Sudoeste 33 Sudoeste 0.1 914.4 0.8 67
2019-11-17 10:00:00 4.9 8 Oeste 27 Sudoeste 0 914.4 1.2 66
2019-11-17 09:00:00 5.6 9 Oeste 26 Sudoeste 0 914 1.1 50
2019-11-17 08:00:00 6.1 8 Oeste 30 Sudoeste 0 913.6 0.5 45
2019-11-17 07:00:00 5.4 9 Sudoeste 28 Sudoeste 0 913.2 -0.1 50
2019-11-17 06:00:00 5.2 8 Sudoeste 20 Oeste 0 912.9 -0.4 51
2019-11-17 05:00:00 4.8 6 Oeste 22 Sudoeste 0 913.1 -0.4 51
2019-11-17 04:00:00 4.5 7 Oeste 15 Oeste 0 913.3 -0.5 51
2019-11-17 03:00:00 4.6 6 Oeste 16 Oeste 0 913.3 -0.7 50
2019-11-17 02:00:00 4.4 5 Oeste 13 Oeste 0 913.5 -0.5 49
2019-11-17 01:00:00 6 7 Oeste 19 Sudoeste 0 913.8 0 42
2019-11-17 00:00:00 5.8 6 Sudoeste 19 Sudoeste 0 914 0.7 41
2019-11-16 23:00:00 5.8 6 Oeste 17 Sudoeste 0 914 1 43
2019-11-16 22:00:00 4.9 8 Oeste 17 Noroeste 0 913.8 1.1 50
2019-11-16 21:00:00 4.3 7 Oeste 20 Noroeste 0 913.3 1.1 47
2019-11-16 20:00:00 4.4 7 Oeste 20 Noroeste 0 913 1.1 46
2019-11-16 19:00:00 5.4 5 Oeste 21 Noroeste 0 912.7 1.5 42
2019-11-16 18:00:00 5.3 6 Oeste 14 Sudoeste 0 912.2 1.4 45
2019-11-16 17:00:00 6 5 Oeste 16 Oeste 0 911.9 1.2 43
2019-11-16 16:00:00 7.1 7 Oeste 15 Oeste 0 911.2 0.4 40
2019-11-16 15:00:00 9.2 3 Sudeste 13 Sur 0 910.8 -0.2 32
2019-11-16 14:00:00 9 4 Noroeste 19 Noroeste 0 910.7 0.4 31
2019-11-16 13:00:00 7.6 6 Oeste 16 Noroeste 0 910.8 1.1 32
2019-11-16 12:00:00 7.9 3 Este 13 Este 0 911 2.5 38
2019-11-16 11:00:00 6.3 3 Este 17 Este 0 910.3 2.5 42
2019-11-16 10:00:00 5.4 3 Nordeste 14 Oeste 0 909.7 2.9 44
2019-11-16 09:00:00 4 3 Nordeste 16 Noroeste 0 908.5 2.2 48
2019-11-16 08:00:00 3 0 Calma 18 Noroeste 0 907.8 1.9 47
2019-11-16 07:00:00 2.1 3 Oeste 8 Noroeste 0 906.8 1.4 52
2019-11-16 06:00:00 1.6 3 Oeste 7 Sur 0 906.3 1.1 57
2019-11-16 05:00:00 1.5 3 Oeste 9 Oeste 0 905.9 0.7 59
2019-11-16 04:00:00 0.8 5 Oeste 9 Oeste 0 905.4 0.3 62
2019-11-16 03:00:00 1.2 5 Oeste 10 Oeste 0 905.2 0.1 58
2019-11-16 02:00:00 3.2 5 Noroeste 16 Noroeste 0 905.2 0.2 48
2019-11-16 01:00:00 3.5 6 Oeste 20 Oeste 0 905.1 0.5 47
2019-11-16 00:00:00 4.2 5 Oeste 18 Noroeste 0 905.1 1 46
2019-11-15 23:00:00 4.6 5 Oeste 21 Oeste 0 905 1.2 45
2019-11-15 22:00:00 5 5 Oeste 24 Sur 0 904.6 0.9 45
2019-11-15 21:00:00 5.6 6 Oeste 24 Oeste 0 904.1 0.9 43
2019-11-15 20:00:00 5.7 10 Oeste 24 Noroeste 0 903.8 0.8 44
2019-11-15 19:00:00 5.3 8 Noroeste 25 Noroeste 0 903.7 0.9 45
2019-11-15 18:00:00 5.3 6 Oeste 20 Sudoeste 0 903.2 0.3 45
2019-11-15 17:00:00 5.6 7 Oeste 26 Oeste 0 903 -0.4 45
2019-11-15 16:00:00 5.7 8 Sudoeste 20 Sudoeste 0 902.8 -1 42
2019-11-15 15:00:00 6.1 9 Oeste 24 Sudoeste 0 902.9 -1.5 43
2019-11-15 14:00:00 6.2 9 Oeste 25 Noroeste 0 903.4 -1.1 41
2019-11-15 13:00:00 6.3 7 Oeste 22 Sudoeste 0 903.8 -0.4 45
2019-11-15 12:00:00 6.2 8 Oeste 24 Noroeste 0 904.4 0.3 44
2019-11-15 11:00:00 4.7 10 Oeste 21 Noroeste 0 904.5 0.6 49
2019-11-15 10:00:00 5 6 Oeste 20 Sudoeste 0 904.2 0.3 50
2019-11-15 09:00:00 3.6 9 Oeste 32 Oeste 0 904.1 0.2 57
2019-11-15 08:00:00 3.1 10 Oeste 28 Noroeste 0 903.9 0 58
2019-11-15 07:00:00 3.5 6 Oeste 23 Noroeste 0 903.9 -0.6 54
2019-11-15 06:00:00 3.9 8 Oeste 27 Sudoeste 0 903.9 -0.9 54
2019-11-15 05:00:00 4.6 9 Oeste 30 Sudoeste 0 903.9 -1.1 50
2019-11-15 04:00:00 4.7 10 Oeste 27 Sudoeste 0 904.5 -1.2 53
2019-11-15 03:00:00 5.1 9 Sudoeste 39 Sur 0 904.8 -1.1 55
2019-11-15 02:00:00 5.6 11 Oeste 29 Sudoeste 0 905 -0.9 60
2019-11-15 01:00:00 5.8 11 Sudoeste 31 Oeste 0 905.7 -0.1 56
2019-11-15 00:00:00 5.8 6 Oeste 26 Sudoeste 0 905.9 0 65
2019-11-14 23:00:00 5.8 8 Sudoeste 32 Sudoeste 0 905.9 0.2 65
2019-11-14 22:00:00 6 10 Oeste 27 Sudoeste 0 905.8 0 61
2019-11-14 21:00:00 6 7 Oeste 27 Sur 0 905.9 0.6 60
2019-11-14 20:00:00 6.3 8 Oeste 31 Oeste 0 905.7 1 60
2019-11-14 19:00:00 6.5 9 Oeste 28 Noroeste 0 905.8 1.3 59
2019-11-14 18:00:00 6.5 8 Oeste 25 Noroeste 0.1 905.3 0.2 60
2019-11-14 17:00:00 6.6 14 Oeste 37 Oeste 0 904.7 -0.7 58
2019-11-14 16:00:00 6.7 12 Oeste 34 Oeste 1 904.5 -1 64
2019-11-14 15:00:00 7.1 14 Oeste 37 Oeste 7.1 905.1 -1.2 67
2019-11-14 14:00:00 7.5 10 Oeste 41 Sur 6.1 905.4 -1.5 67
2019-11-14 13:00:00 8.5 13 Oeste 47 Sudoeste 7.4 905.5 -1.9 71
2019-11-14 12:00:00 8.6 9 Sudoeste 31 Noroeste 3.5 906.3 -1 71
2019-11-14 11:00:00 7.9 14 Oeste 38 Oeste 0.3 906.9 -0.5 71
2019-11-14 10:00:00 7.3 10 Oeste 36 Sudoeste 0.3 907.4 -0.1 72
2019-11-14 09:00:00 7.5 10 Oeste 37 Sudoeste 0 907.3 -0.3 66
2019-11-14 08:00:00 7.4 10 Oeste 29 Sudoeste 0 907.4 -0.7 63
2019-11-14 07:00:00 7.6 10 Oeste 26 Sudoeste 0 907.5 -1.2 63
2019-11-14 06:00:00 7.5 9 Oeste 28 Sur 0 907.6 -2.2 65
2019-11-14 05:00:00 8.8 10 Oeste 30 Sudoeste 0 908.1 -2.7 70
2019-11-14 04:00:00 9.9 7 Oeste 26 Oeste 0 908.7 -2.6 66
2019-11-14 03:00:00 10.4 8 Oeste 25 Oeste 0 909.8 -1.6 68
2019-11-14 02:00:00 10.4 7 Oeste 19 Sudoeste 0 910.8 -1.7 69
2019-11-14 01:00:00 10.7 8 Oeste 28 Oeste 0 911.3 -0.6 69
2019-11-14 00:00:00 11 8 Oeste 27 Sudoeste 0 911.4 -0.5 65
2019-11-13 23:00:00 11.1 9 Oeste 24 Sudoeste 0 912.5 0.3 68
2019-11-13 22:00:00 11.1 9 Oeste 27 Oeste 0 911.9 0 69
2019-11-13 21:00:00 11.1 8 Oeste 22 Oeste 0 911.9 0.4 69
2019-11-13 20:00:00 11 9 Oeste 27 Sudoeste 0 912.2 1.1 68
2019-11-13 19:00:00 11.4 8 Oeste 26 Sudoeste 0.1 911.9 0.6 67
2019-11-13 18:00:00 11.5 11 Oeste 31 Sudoeste 0 911.5 0.3 67
2019-11-13 17:00:00 11.8 11 Oeste 30 Sudoeste 0 911.1 -0.2 68
2019-11-13 16:00:00 11.7 9 Oeste 28 Sudoeste 0.1 911.3 -0.4 73
2019-11-13 15:00:00 11.5 9 Oeste 28 Sudoeste 0.7 911.2 -0.8 73
2019-11-13 14:00:00 11.5 10 Oeste 29 Oeste 3.6 911.3 -0.4 71
2019-11-13 13:00:00 11.3 11 Oeste 31 Oeste 2.6 911.7 0.1 71
2019-11-13 12:00:00 11.1 9 Oeste 32 Oeste 1.4 912 1.4 70
2019-11-13 11:00:00 11.1 10 Oeste 26 Oeste 1.6 911.7 1 70
2019-11-13 10:00:00 10.3 11 Oeste 28 Sudoeste 1.3 911.6 1.2 70
2019-11-13 09:00:00 9.7 9 Oeste 33 Sudoeste 0.4 910.6 0 70
2019-11-13 08:00:00 9.6 9 Oeste 39 Sudoeste 0.5 910.7 0.2 70
2019-11-13 07:00:00 9.5 9 Oeste 32 Sudoeste 1.2 910.4 -0.2 70
2019-11-13 06:00:00 9.4 8 Oeste 30 Oeste 0.5 910.6 -0.6 70
2019-11-13 05:00:00 9.4 9 Oeste 21 Noroeste 1.1 910.5 -1.2 70
2019-11-13 04:00:00 9.3 10 Oeste 25 Noroeste 0.8 910.6 -1.4 70
2019-11-13 03:00:00 9.5 10 Oeste 32 Noroeste 0.1 911.2 -0.7 66
2019-11-13 02:00:00 9.9 7 Oeste 30 Noroeste 0 911.7 -0.4 60
2019-11-13 01:00:00 10.1 8 Oeste 31 Oeste 0 912 0.1 55
2019-11-13 00:00:00 8.5 8 Oeste 17 Noroeste 0 911.9 -0.1 53
2019-11-12 23:00:00 8.4 6 Oeste 22 Noroeste 0 912.1 0.5 51
2019-11-12 22:00:00 9.1 8 Oeste 26 Noroeste 0 911.9 0.5 51
2019-11-12 21:00:00 8.9 10 Oeste 25 Sur 0 912 0.9 52
2019-11-12 20:00:00 9.7 10 Oeste 24 Sudoeste 0 911.6 0.6 50
2019-11-12 19:00:00 9.9 9 Oeste 24 Oeste 0 911.4 0.5 46
2019-11-12 18:00:00 10.6 8 Oeste 21 Noroeste 0 911.1 -0.2 43
2019-11-12 17:00:00 11.2 6 Oeste 32 Noroeste 0 911 -0.4 40
2019-11-12 16:00:00 11.6 7 Oeste 25 Oeste 0 910.9 -1.2 31
2019-11-12 15:00:00 12.5 10 Oeste 25 Noroeste 0 911.3 -1.1 36
2019-11-12 14:00:00 13.1 6 Oeste 20 Noroeste 0 911.4 -0.7 46
2019-11-12 13:00:00 13 5 Oeste 17 Noroeste 0 912.1 -0.2 49
2019-11-12 12:00:00 10.9 0 Calma 13 Nordeste 0 912.4 1.2 70
2019-11-12 11:00:00 10.1 5 Nordeste 12 Nordeste 0 912.1 0.9 71
2019-11-12 10:00:00 9.5 3 Nordeste 17 Noroeste 0 912.3 1.3 70
2019-11-12 09:00:00 9.9 3 Noroeste 17 Norte 0 911.2 0.3 53
2019-11-12 08:00:00 8.9 0 Calma 15 Noroeste 0 911.2 -0.1 68
2019-11-12 07:00:00 9.7 2 Este 10 Oeste 0 911 -0.7 72
2019-11-12 06:00:00 9.9 2 Nordeste 10 Oeste 0 910.9 -1 68
2019-11-12 05:00:00 10.9 2 Oeste 22 Oeste 0 911.3 -0.6 63
2019-11-12 04:00:00 11.1 5 Oeste 19 Oeste 0 911.7 -0.8 63
2019-11-12 03:00:00 11.3 6 Oeste 15 Noroeste 0 911.9 -0.6 63
2019-11-12 02:00:00 11.6 3 Oeste 18 Noroeste 0 911.9 -1.2 61
2019-11-12 01:00:00 11.7 5 Oeste 14 Oeste 0 912.5 -0.4 62
2019-11-12 00:00:00 11.9 4 Sudoeste 12 Sudoeste 0 912.5 -0.1 62
2019-11-11 23:00:00 11.9 2 Nordeste 18 Noroeste 0 913.1 0.6 61
2019-11-11 22:00:00 12.1 5 Noroeste 18 Noroeste 0 912.9 0.1 63
2019-11-11 21:00:00 11.8 0 Calma 14 Oeste 0 912.6 0.3 66
2019-11-11 20:00:00 11.7 4 Oeste 22 Noroeste 0.2 912.5 0.3 66
2019-11-11 19:00:00 11.9 6 Oeste 26 Sudoeste 0.7 912.8 0.5 69
2019-11-11 18:00:00 11.3 6 Oeste 26 Noroeste 0.2 912.3 -0.3 72
2019-11-11 17:00:00 11 7 Oeste 21 Sudoeste 0 912.2 -0.8 71
2019-11-11 16:00:00 10.9 7 Oeste 23 Noroeste 0.1 912.3 -1 69
2019-11-11 15:00:00 11 8 Oeste 25 Oeste 0 912.6 -1.3 66
2019-11-11 14:00:00 11 7 Oeste 29 Noroeste 0 913 -1.2 64
2019-11-11 13:00:00 10.9 6 Oeste 31 Oeste 0 913.3 -1.2 64
2019-11-11 12:00:00 10.7 8 Oeste 30 Sur 0 913.9 -0.3 66
2019-11-11 11:00:00 9.8 8 Oeste 22 Noroeste 0 914.2 0.4 68
2019-11-11 10:00:00 8.8 9 Noroeste 23 Noroeste 0 914.5 0.9 68
2019-11-11 09:00:00 8.2 3 Oeste 25 Sudoeste 0.1 914.2 0.4 70
2019-11-11 08:00:00 7.3 8 Noroeste 20 Noroeste 0.2 913.8 0.3 70
2019-11-11 07:00:00 7.3 6 Oeste 26 Oeste 0.1 913.6 -0.4 68
2019-11-11 06:00:00 7.3 6 Oeste 25 Noroeste 0.1 913.8 -0.8 68
2019-11-11 05:00:00 7.3 2 Oeste 17 Sur 0.4 913.5 -1.6 68
2019-11-11 04:00:00 7.3 3 Sudoeste 24 Sudoeste 0.6 914 -1 67
2019-11-11 03:00:00 7.5 2 Oeste 27 Sur 0.1 914.6 -0.3 63
2019-11-11 02:00:00 8 5 Oeste 34 Noroeste 0 915.1 -0.2 55
2019-11-11 01:00:00 7.8 8 Oeste 34 Sudoeste 0 915 0.4 55
2019-11-11 00:00:00 8 9 Oeste 37 Sudoeste 0 914.9 0.1 54